createdAt,value
2022-12-12T00:01:54.717Z,6.15
2022-12-12T00:06:56.185Z,3.90
2022-12-12T00:11:57.696Z,4.85
2022-12-12T00:16:59.116Z,3.80
2022-12-12T00:22:00.742Z,5.30
2022-12-12T00:27:02.286Z,5.85
2022-12-12T00:32:03.843Z,7.82
2022-12-12T00:37:05.307Z,12.00
2022-12-12T00:42:06.765Z,9.85
2022-12-12T00:47:08.225Z,5.60
2022-12-12T00:52:09.685Z,5.03
2022-12-12T00:57:11.157Z,3.72
2022-12-12T01:02:12.610Z,4.75
2022-12-12T01:07:14.113Z,5.60
2022-12-12T01:12:15.572Z,3.78
2022-12-12T01:17:17.095Z,2.75
2022-12-12T01:22:18.477Z,3.90
2022-12-12T01:27:19.937Z,4.72
2022-12-12T01:32:22.043Z,3.55
2022-12-12T01:37:23.621Z,2.28
2022-12-12T01:42:25.081Z,3.90
2022-12-12T01:47:26.541Z,3.25
2022-12-12T01:52:48.873Z,6.38
2022-12-12T01:57:54.597Z,2.03
2022-12-12T02:02:56.734Z,4.97
2022-12-12T02:08:03.119Z,3.80
2022-12-12T02:13:11.734Z,9.15
2022-12-12T02:18:34.234Z,7.05
2022-12-12T02:24:14.149Z,7.20
2022-12-12T02:29:15.607Z,7.85
2022-12-12T02:34:36.341Z,7.72
2022-12-12T02:39:44.550Z,16.17
2022-12-12T02:44:57.642Z,6.40
2022-12-12T02:50:08.322Z,5.20
2022-12-12T02:55:10.152Z,2.30
2022-12-12T03:00:15.570Z,5.43
2022-12-12T03:05:54.079Z,8.03
2022-12-12T03:11:03.139Z,10.73
2022-12-12T03:16:16.639Z,14.93
2022-12-12T03:21:27.254Z,12.75
2022-12-12T03:26:41.270Z,11.38
2022-12-12T03:31:47.087Z,9.38
2022-12-12T03:37:01.198Z,8.25
2022-12-12T03:42:12.070Z,8.43
2022-12-12T03:47:20.124Z,9.80
2022-12-12T03:52:30.242Z,7.07
2022-12-12T03:57:38.051Z,4.28
2022-12-12T04:02:47.810Z,8.90
2022-12-12T04:08:05.936Z,5.45
2022-12-12T04:13:13.379Z,6.63
2022-12-12T04:18:19.399Z,8.70
2022-12-12T04:28:57.734Z,9.73
2022-12-12T04:34:05.727Z,7.15
2022-12-12T04:39:10.082Z,3.00
2022-12-12T04:44:14.276Z,4.43
2022-12-12T04:49:20.327Z,10.73
2022-12-12T04:55:13.461Z,6.00
2022-12-12T05:00:15.970Z,7.22
2022-12-12T05:05:26.427Z,5.68
2022-12-12T05:10:28.111Z,4.45
2022-12-12T05:15:29.784Z,11.05
2022-12-12T05:20:31.555Z,10.77
2022-12-12T05:25:33.339Z,10.05
2022-12-12T05:30:35.139Z,10.43
2022-12-12T05:35:36.685Z,9.57
2022-12-12T05:40:38.088Z,10.88
2022-12-12T05:45:39.740Z,10.10
2022-12-12T05:50:41.191Z,12.70
2022-12-12T05:55:42.608Z,9.70
2022-12-12T06:00:44.231Z,9.88
2022-12-12T06:05:45.928Z,9.30
2022-12-12T06:10:47.445Z,11.48
2022-12-12T06:15:49.188Z,6.32
2022-12-12T06:20:50.831Z,10.25
2022-12-12T06:25:52.300Z,11.60
2022-12-12T06:30:53.829Z,17.60
2022-12-12T06:36:04.262Z,7.85
2022-12-12T06:41:11.255Z,12.13
2022-12-12T06:46:18.305Z,9.13
2022-12-12T06:51:23.116Z,7.80
2022-12-12T06:56:26.019Z,4.32
2022-12-12T07:01:28.278Z,7.35
2022-12-12T07:06:29.877Z,9.95
2022-12-12T07:11:31.858Z,7.60
2022-12-12T07:16:34.104Z,11.70
2022-12-12T07:21:35.586Z,9.75
2022-12-12T07:26:37.119Z,6.78
2022-12-12T07:31:38.861Z,4.32
2022-12-12T07:36:40.701Z,10.18
2022-12-12T07:41:42.471Z,12.02
2022-12-12T07:46:43.915Z,10.68
2022-12-12T07:51:48.965Z,11.70
2022-12-12T07:56:51.004Z,5.72
2022-12-12T08:01:52.484Z,11.60
2022-12-12T08:07:00.615Z,5.05
2022-12-12T08:12:04.674Z,7.63
2022-12-12T08:17:06.275Z,6.45
2022-12-12T08:22:07.973Z,7.50
2022-12-12T08:27:15.195Z,6.07
2022-12-12T08:32:17.146Z,7.72
2022-12-12T08:37:18.595Z,7.72
2022-12-12T08:42:20.218Z,15.10
2022-12-12T08:47:21.765Z,10.80
2022-12-12T08:52:23.171Z,8.65
2022-12-12T08:57:26.146Z,12.75
2022-12-12T09:02:28.094Z,14.68
2022-12-12T09:07:29.970Z,11.95
2022-12-12T09:12:33.610Z,10.38
2022-12-12T09:17:38.452Z,9.95
2022-12-12T09:22:39.957Z,10.07
2022-12-12T09:27:41.478Z,12.65
2022-12-12T09:32:43.016Z,10.98
2022-12-12T09:37:44.456Z,21.77
2022-12-12T09:42:51.399Z,9.77
2022-12-12T09:48:00.518Z,13.20
2022-12-12T09:53:11.114Z,8.75
2022-12-12T09:58:21.615Z,10.57
2022-12-12T10:03:58.227Z,11.15
2022-12-12T10:09:18.574Z,11.27
2022-12-12T10:14:32.388Z,15.35
2022-12-12T10:19:38.758Z,6.95
2022-12-12T10:24:46.363Z,13.13
2022-12-12T10:29:48.973Z,12.05
2022-12-12T10:35:18.817Z,7.30
2022-12-12T10:40:34.984Z,16.20
2022-12-12T10:45:54.813Z,10.35
2022-12-12T10:51:01.999Z,7.22
2022-12-12T10:56:32.739Z,7.13
2022-12-12T11:02:09.639Z,10.20
2022-12-12T11:06:59.319Z,13.45
2022-12-12T11:12:04.826Z,11.85
2022-12-12T11:17:26.315Z,11.43
2022-12-12T11:22:32.735Z,13.85
2022-12-12T11:27:38.383Z,8.98
2022-12-12T11:32:42.511Z,11.82
2022-12-12T11:37:51.702Z,12.93
2022-12-12T11:43:08.193Z,8.32
2022-12-12T11:48:32.409Z,11.02
2022-12-12T11:53:38.618Z,8.40
2022-12-12T11:59:14.495Z,12.25
2022-12-12T12:04:49.563Z,10.10
2022-12-12T12:10:27.021Z,13.48
2022-12-12T12:21:39.263Z,10.75
2022-12-12T12:28:08.168Z,7.70
2022-12-12T12:33:34.481Z,7.18
2022-12-12T12:39:02.596Z,18.10
2022-12-12T12:44:37.429Z,10.43
2022-12-12T12:49:49.244Z,8.05
2022-12-12T12:54:55.364Z,5.80
2022-12-12T13:00:05.783Z,10.75
2022-12-12T13:05:11.965Z,12.40
2022-12-12T13:10:19.381Z,7.53
2022-12-12T13:15:42.999Z,10.90
2022-12-12T13:20:55.382Z,4.47
2022-12-12T13:26:08.353Z,7.60
2022-12-12T13:31:38.417Z,7.95
2022-12-12T13:37:00.904Z,9.45
2022-12-12T13:42:11.258Z,8.32
2022-12-12T13:47:19.230Z,8.82
2022-12-12T13:52:27.585Z,16.40
2022-12-12T13:57:31.948Z,9.88
2022-12-12T14:03:01.529Z,13.02
2022-12-12T14:08:19.075Z,13.77
2022-12-12T14:13:23.789Z,21.77
2022-12-12T14:18:40.184Z,40.25
2022-12-12T14:23:50.032Z,56.50
2022-12-12T14:29:17.797Z,32.17
2022-12-12T14:34:34.390Z,36.38
2022-12-12T14:39:50.602Z,11.65
2022-12-12T14:50:17.585Z,13.75
2022-12-12T14:55:20.806Z,6.18
2022-12-12T15:00:25.824Z,9.60
2022-12-12T15:05:35.371Z,13.98
2022-12-12T15:10:37.709Z,10.82
2022-12-12T15:15:39.984Z,10.63
2022-12-12T15:20:41.834Z,7.32
2022-12-12T15:25:52.955Z,12.60
2022-12-12T15:30:57.622Z,13.18
2022-12-12T15:36:02.751Z,15.57
2022-12-12T15:41:12.987Z,31.25
2022-12-12T15:46:16.495Z,31.42
2022-12-12T15:51:24.717Z,26.27
2022-12-12T15:56:28.994Z,24.83
2022-12-12T16:01:31.589Z,20.42
2022-12-12T16:06:39.813Z,38.22
2022-12-12T16:11:47.844Z,14.63
2022-12-12T16:16:56.126Z,11.38
2022-12-12T16:22:04.061Z,16.00
2022-12-12T16:27:08.703Z,15.02
2022-12-12T16:32:16.361Z,13.75
2022-12-12T16:37:18.330Z,13.75
2022-12-12T16:42:21.390Z,6.43
2022-12-12T16:47:24.226Z,10.90
2022-12-12T16:52:25.664Z,9.10
2022-12-12T16:57:27.129Z,13.27
2022-12-12T17:02:28.573Z,14.23
2022-12-12T17:07:30.259Z,24.20
2022-12-12T17:12:31.732Z,19.42
2022-12-12T17:17:33.172Z,10.73
2022-12-12T17:22:34.626Z,15.68
2022-12-12T17:27:36.655Z,10.93
2022-12-12T17:32:38.520Z,10.05
2022-12-12T17:37:40.512Z,8.00
2022-12-12T17:42:42.142Z,8.57
2022-12-12T17:47:43.659Z,5.78
2022-12-12T17:52:45.095Z,12.30
2022-12-12T17:57:46.492Z,9.75
2022-12-12T18:02:47.906Z,5.50
2022-12-12T18:07:49.426Z,7.30
2022-12-12T18:12:51.993Z,8.75
2022-12-12T18:17:53.621Z,4.93
2022-12-12T18:22:55.016Z,8.75
2022-12-12T18:27:56.456Z,9.07
2022-12-12T18:33:02.770Z,7.93
2022-12-12T18:38:04.673Z,7.88
2022-12-12T18:43:06.171Z,11.52
2022-12-12T18:48:07.715Z,14.35
2022-12-12T18:53:09.386Z,32.67
2022-12-12T18:58:11.486Z,9.40
2022-12-12T19:03:12.994Z,18.00
2022-12-12T19:08:14.616Z,9.90
2022-12-12T19:13:16.024Z,7.93
2022-12-12T19:18:17.534Z,7.65
2022-12-12T19:23:19.048Z,10.27
2022-12-12T19:28:20.649Z,10.30
2022-12-12T19:33:22.132Z,6.95
2022-12-12T19:38:24.663Z,16.17
2022-12-12T19:43:28.805Z,7.45
2022-12-12T19:48:30.334Z,8.23
2022-12-12T19:53:31.976Z,6.88
2022-12-12T19:58:38.414Z,11.70
2022-12-12T20:03:40.953Z,17.33
2022-12-12T20:08:42.415Z,12.35
2022-12-12T20:13:49.274Z,19.48
2022-12-12T20:18:51.751Z,12.90
2022-12-12T20:23:54.032Z,8.18
2022-12-12T20:28:56.862Z,20.40
2022-12-12T20:33:59.509Z,13.07
2022-12-12T20:39:06.248Z,15.55
2022-12-12T20:44:08.812Z,15.00
2022-12-12T20:49:14.544Z,16.95
2022-12-12T20:54:24.291Z,10.88
2022-12-12T20:59:30.368Z,13.95
2022-12-12T21:04:40.906Z,13.48
2022-12-12T21:09:50.471Z,7.05
2022-12-12T21:15:02.465Z,11.27
2022-12-12T21:20:06.815Z,9.07
2022-12-12T21:25:09.013Z,10.50
2022-12-12T21:30:10.801Z,11.65
2022-12-12T21:35:12.645Z,13.13
2022-12-12T21:40:14.364Z,10.43
2022-12-12T21:45:16.365Z,14.13
2022-12-12T21:50:18.060Z,12.07
2022-12-12T21:55:19.522Z,10.00
2022-12-12T22:00:21.207Z,10.90
2022-12-12T22:05:22.848Z,18.65
2022-12-12T22:10:24.305Z,13.13
2022-12-12T22:15:25.765Z,16.35
2022-12-12T22:20:27.221Z,15.63
2022-12-12T22:25:29.166Z,16.55
2022-12-12T22:30:30.582Z,11.55
2022-12-12T22:35:32.101Z,14.02
2022-12-12T22:40:33.512Z,14.95
2022-12-12T22:45:34.996Z,16.25
2022-12-12T22:50:36.659Z,14.30
2022-12-12T22:55:38.179Z,12.43
2022-12-12T23:00:39.696Z,10.57
2022-12-12T23:05:41.246Z,11.63
2022-12-12T23:10:42.689Z,11.13
2022-12-12T23:15:44.108Z,19.55
2022-12-12T23:20:45.802Z,13.50
2022-12-12T23:25:47.222Z,17.58
2022-12-12T23:30:48.806Z,18.92
2022-12-12T23:35:51.229Z,15.07
2022-12-12T23:40:52.850Z,11.88
2022-12-12T23:45:54.406Z,12.93
2022-12-12T23:50:56.123Z,14.40
2022-12-12T23:56:03.809Z,13.77
